Norcross, Minnesota
Current Conditions -  °F | °C
As of 3:16 PM on Wednesday 26 Nov 2014 (Local Time) from KETH Reporting Station
Scattered Clouds Scattered Clouds  
Wind Chill: -12°   Ceiling: Unl
Heat Index:   Visibility: 10mi
Dew Point:   Wind: 17mph
Humidity: 72%   Direction: 320°NW
Pressure: 30.42"   Gusts: 21mph
Location:  45.87°N, 96.2°W
Report Text: KETH 262116Z AUTO 32015G18KT 10SM SCT048 M14/M18 A3042 RMK AO2
Loading
Personal Weather Stations






























Interactive Weather Map New forecast layout! Learn more

10-Day Weather Forecast

Advertisements
Track Severe Weather on mobile